Time;durP1;ratioP1;P1;durP2;ratioP2;P2;SDS_P1;SDS_P2;PMS_P1;PMS_P2;Temp;Humidity;BMP_temperature;BMP_pressure;BME280_temperature;BME280_humidity;BME280_pressure;Samples;Min_cycle;Max_cycle;Signal;HPM_P1;HPM_P2
2021/07/04 09:05:23;;;;;;;1.30;1.20;;;;;;;;;;7147395;27;20600;-82
2021/07/04 09:08:44;;;;;;;1.70;1.60;;;;;;;;;;7116915;27;20400;-82
2021/07/04 09:12:10;;;;;;;4.20;1.75;;;;;;;;;;7118790;27;20429;-83
2021/07/04 09:15:31;;;;;;;2.22;1.35;;;;;;;;;;7111167;27;20488;-82
2021/07/04 09:19:10;;;;;;;6.47;1.70;;;;;;;;;;7110186;27;20126;-82
2021/07/04 09:22:43;;;;;;;3.53;1.25;;;;;;;;;;7103780;27;20047;-83
2021/07/04 09:26:03;;;;;;;3.20;1.70;;;;;;;;;;7110032;27;20130;-82
2021/07/04 09:29:47;;;;;;;3.33;1.52;;;;;;;;;;7103515;27;20043;-82
2021/07/04 09:33:16;;;;;;;5.22;1.50;;;;;;;;;;7107133;27;20045;-81
2021/07/04 09:36:39;;;;;;;3.20;1.63;;;;;;;;;;7105745;27;20065;-81
2021/07/04 09:40:11;;;;;;;2.50;1.40;;;;;;;;;;7113799;27;20047;-82
2021/07/04 09:43:33;;;;;;;2.08;1.67;;;;;;;;;;7104278;27;20397;-81
2021/07/04 09:47:19;;;;;;;5.20;2.03;;;;;;;;;;7084767;27;20057;-81
2021/07/04 09:50:42;;;;;;;3.22;1.75;;;;;;;;;;7114626;27;20592;-82
2021/07/04 09:54:02;;;;;;;3.47;1.92;;;;;;;;;;7106626;27;20039;-82
2021/07/04 09:57:23;;;;;;;2.70;1.55;;;;;;;;;;7122191;27;20135;-81
2021/07/04 10:00:45;;;;;;;3.30;1.45;;;;;;;;;;7107631;27;20469;-82
2021/07/04 10:04:10;;;;;;;5.43;1.80;;;;;;;;;;7102810;27;20207;-82
2021/07/04 10:07:31;;;;;;;5.03;1.80;;;;;;;;;;7105387;27;20167;-81
2021/07/04 10:11:02;;;;;;;4.07;2.15;;;;;;;;;;7131280;27;20130;-83
2021/07/04 10:14:23;;;;;;;5.40;1.88;;;;;;;;;;7111469;27;20476;-82
2021/07/04 10:17:44;;;;;;;4.95;1.90;;;;;;;;;;7088095;27;20054;-82
2021/07/04 10:21:05;;;;;;;2.58;1.77;;;;;;;;;;7074637;27;20050;-83
2021/07/04 10:24:26;;;;;;;2.72;1.70;;;;;;;;;;7098132;27;20058;-78
2021/07/04 10:27:48;;;;;;;3.15;1.92;;;;;;;;;;7100740;27;20053;-78
2021/07/04 10:31:17;;;;;;;3.38;1.75;;;;;;;;;;7098769;27;20114;-78
2021/07/04 10:34:46;;;;;;;4.43;1.75;;;;;;;;;;7097426;27;20471;-79
2021/07/04 10:38:15;;;;;;;3.00;1.40;;;;;;;;;;7092607;27;20488;-78
2021/07/04 10:41:35;;;;;;;1.73;1.48;;;;;;;;;;7083042;27;20055;-78
2021/07/04 10:44:56;;;;;;;1.90;1.50;;;;;;;;;;7083236;27;20088;-78
2021/07/04 10:48:27;;;;;;;4.25;1.98;;;;;;;;;;7083010;27;20134;-79
2021/07/04 10:51:55;;;;;;;3.63;1.88;;;;;;;;;;7083105;27;20045;-79
2021/07/04 10:55:29;;;;;;;3.72;1.85;;;;;;;;;;7088157;27;20092;-78
2021/07/04 10:59:19;;;;;;;3.30;2.08;;;;;;;;;;7089918;27;20237;-78
2021/07/04 11:02:40;;;;;;;5.90;1.90;;;;;;;;;;7064205;27;20053;-79
2021/07/04 11:06:01;;;;;;;8.57;2.20;;;;;;;;;;7089187;27;20062;-78
2021/07/04 11:09:21;;;;;;;4.95;2.13;;;;;;;;;;7086729;27;20152;-78
2021/07/04 11:12:42;;;;;;;4.05;2.13;;;;;;;;;;7093706;27;20137;-79
2021/07/04 11:16:07;;;;;;;3.40;2.30;;;;;;;;;;7089241;27;20040;-78
2021/07/04 11:19:28;;;;;;;5.03;1.73;;;;;;;;;;7083070;27;20043;-78
2021/07/04 11:23:06;;;;;;;3.67;1.83;;;;;;;;;;7082699;27;20082;-78
2021/07/04 11:26:27;;;;;;;3.85;2.08;;;;;;;;;;7082400;27;20063;-78
2021/07/04 11:30:18;;;;;;;1.92;1.73;;;;;;;;;;7092483;27;20091;-78
2021/07/04 11:33:40;;;;;;;6.80;1.90;;;;;;;;;;7081949;27;20050;-78
2021/07/04 11:37:00;;;;;;;5.13;1.88;;;;;;;;;;7084987;27;20057;-78
2021/07/04 11:40:21;;;;;;;3.58;1.90;;;;;;;;;;7102033;27;20066;-78
2021/07/04 11:43:42;;;;;;;6.68;2.22;;;;;;;;;;7087700;27;20054;-78
2021/07/04 11:47:03;;;;;;;3.97;2.28;;;;;;;;;;7087826;27;20050;-78
2021/07/04 11:50:23;;;;;;;3.58;1.90;;;;;;;;;;7088675;27;20039;-77
2021/07/04 11:53:48;;;;;;;3.90;1.67;;;;;;;;;;7086393;27;20049;-78
2021/07/04 12:00:49;;;;;;;4.65;1.90;;;;;;;;;;7078344;27;20043;-78
2021/07/04 12:04:10;;;;;;;8.77;1.92;;;;;;;;;;7099625;27;20046;-78
2021/07/04 12:07:30;;;;;;;4.88;2.03;;;;;;;;;;7090117;27;20087;-78
2021/07/04 12:10:53;;;;;;;6.00;2.20;;;;;;;;;;7093608;27;20070;-77
2021/07/04 12:14:33;;;;;;;4.10;1.92;;;;;;;;;;7081128;27;20533;-78
2021/07/04 12:17:53;;;;;;;7.55;2.00;;;;;;;;;;7081287;27;20043;-78
2021/07/04 12:21:13;;;;;;;4.00;1.77;;;;;;;;;;7080973;27;20120;-79
2021/07/04 12:24:39;;;;;;;5.22;2.38;;;;;;;;;;7080544;27;20054;-78
2021/07/04 12:28:03;;;;;;;5.10;2.17;;;;;;;;;;7081182;27;20058;-78
2021/07/04 12:31:23;;;;;;;9.85;2.20;;;;;;;;;;7080651;27;20043;-78
2021/07/04 12:34:44;;;;;;;3.28;1.95;;;;;;;;;;7062596;27;20046;-78
2021/07/04 12:38:14;;;;;;;4.93;1.80;;;;;;;;;;7079152;27;20125;-78
2021/07/04 13:33:51;;;;;;;4.00;1.48;;;;;;;;;;1742294;28;23705;-80
2021/07/04 13:37:18;;;;;;;3.58;1.90;;;;;;;;;;7048258;27;20061;-78
2021/07/04 13:40:40;;;;;;;2.95;1.50;;;;;;;;;;7078909;27;20194;-78
2021/07/04 13:44:00;;;;;;;5.28;1.90;;;;;;;;;;7046719;28;20147;-79
2021/07/04 13:47:21;;;;;;;5.32;2.10;;;;;;;;;;7049492;28;20036;-78
2021/07/04 13:50:43;;;;;;;2.67;1.70;;;;;;;;;;7047095;28;20134;-78
2021/07/04 13:54:04;;;;;;;2.63;1.48;;;;;;;;;;7068305;27;20051;-78
2021/07/04 13:57:25;;;;;;;7.70;1.83;;;;;;;;;;7063018;27;20135;-79
2021/07/04 14:00:48;;;;;;;4.10;1.60;;;;;;;;;;7067205;27;20051;-78
2021/07/04 14:04:09;;;;;;;3.75;1.60;;;;;;;;;;7068851;27;20046;-78
2021/07/04 14:07:29;;;;;;;2.65;1.50;;;;;;;;;;7067491;27;20078;-79
2021/07/04 14:10:49;;;;;;;7.50;1.75;;;;;;;;;;7069402;27;20438;-78
2021/07/04 14:14:10;;;;;;;2.72;1.50;;;;;;;;;;7067527;27;20045;-78
2021/07/04 14:17:30;;;;;;;1.83;1.50;;;;;;;;;;7060142;27;20047;-80
2021/07/04 14:20:51;;;;;;;3.30;1.55;;;;;;;;;;7055670;27;20075;-78
2021/07/04 14:24:11;;;;;;;1.60;1.23;;;;;;;;;;7051805;28;20622;-78
2021/07/04 14:27:32;;;;;;;2.83;1.77;;;;;;;;;;7053799;28;20052;-78
2021/07/04 14:30:52;;;;;;;3.38;2.10;;;;;;;;;;7053059;28;20046;-78
2021/07/04 14:34:12;;;;;;;1.92;1.20;;;;;;;;;;7055474;27;20055;-78
2021/07/04 14:37:33;;;;;;;3.53;1.80;;;;;;;;;;7065622;27;20059;-79
2021/07/04 14:40:54;;;;;;;4.00;1.70;;;;;;;;;;7064418;27;20048;-78
2021/07/04 14:44:14;;;;;;;2.72;1.95;;;;;;;;;;7082344;27;20039;-78
2021/07/04 14:47:35;;;;;;;5.22;2.00;;;;;;;;;;7081803;27;20062;-78
2021/07/04 14:51:04;;;;;;;4.53;2.00;;;;;;;;;;7081995;27;20047;-78
2021/07/04 14:54:31;;;;;;;4.68;2.40;;;;;;;;;;7082029;27;20047;-78
2021/07/04 14:57:51;;;;;;;2.80;2.00;;;;;;;;;;7082540;27;20484;-78
2021/07/04 15:01:13;;;;;;;4.75;2.25;;;;;;;;;;7069400;27;20131;-78
2021/07/04 15:04:35;;;;;;;3.75;1.92;;;;;;;;;;7051351;28;20044;-78
2021/07/04 15:07:55;;;;;;;5.60;2.28;;;;;;;;;;7051539;28;20044;-78
2021/07/04 15:11:17;;;;;;;3.78;1.92;;;;;;;;;;7053742;28;20131;-78
2021/07/04 15:14:38;;;;;;;4.82;2.25;;;;;;;;;;7053928;28;20044;-79
2021/07/04 15:17:58;;;;;;;3.15;2.10;;;;;;;;;;7053478;28;20104;-78
2021/07/04 15:21:19;;;;;;;3.90;2.38;;;;;;;;;;7052344;28;20043;-78
2021/07/04 15:24:39;;;;;;;4.07;2.40;;;;;;;;;;7052940;28;20046;-78
2021/07/04 15:27:59;;;;;;;3.97;1.92;;;;;;;;;;7052982;28;20042;-78
2021/07/04 15:31:20;;;;;;;3.33;1.85;;;;;;;;;;7053737;28;20090;-78
2021/07/04 15:34:41;;;;;;;7.15;2.17;;;;;;;;;;7053521;28;20054;-78
2021/07/04 15:38:01;;;;;;;2.72;2.03;;;;;;;;;;7067526;27;20503;-78
2021/07/04 15:41:22;;;;;;;3.13;1.88;;;;;;;;;;7068860;27;20587;-80
2021/07/04 15:44:46;;;;;;;5.45;2.22;;;;;;;;;;7050311;28;20082;-80
2021/07/04 15:48:06;;;;;;;6.38;2.03;;;;;;;;;;7059813;27;20058;-80
2021/07/04 15:51:27;;;;;;;4.68;2.00;;;;;;;;;;7042666;27;20449;-80
2021/07/04 15:54:47;;;;;;;4.15;1.73;;;;;;;;;;7049680;27;20143;-80
2021/07/04 15:58:08;;;;;;;2.47;1.52;;;;;;;;;;7052944;27;20052;-79
2021/07/04 16:01:28;;;;;;;5.68;1.63;;;;;;;;;;7031925;28;20404;-80
2021/07/04 16:04:48;;;;;;;5.57;1.52;;;;;;;;;;7051714;28;20044;-80
2021/07/04 16:08:10;;;;;;;4.15;1.83;;;;;;;;;;7051736;28;20039;-80
2021/07/04 16:11:30;;;;;;;6.97;1.92;;;;;;;;;;7049736;27;20055;-80
2021/07/04 16:14:51;;;;;;;6.22;1.58;;;;;;;;;;7051120;28;20100;-80
2021/07/04 16:18:11;;;;;;;4.07;1.60;;;;;;;;;;7051243;28;20185;-79
2021/07/04 16:21:32;;;;;;;3.50;1.60;;;;;;;;;;7050476;28;20056;-80
2021/07/04 16:24:52;;;;;;;3.90;1.65;;;;;;;;;;7050225;28;20052;-79
2021/07/04 16:28:13;;;;;;;3.47;2.03;;;;;;;;;;7051435;28;20051;-79
2021/07/04 16:31:33;;;;;;;6.03;2.00;;;;;;;;;;7050214;28;20083;-80
2021/07/04 16:34:54;;;;;;;6.95;1.77;;;;;;;;;;7051780;28;20082;-79
2021/07/04 16:38:14;;;;;;;2.95;1.65;;;;;;;;;;7069825;27;20051;-80
2021/07/04 16:41:35;;;;;;;3.67;1.65;;;;;;;;;;7079778;27;20051;-79
2021/07/04 16:44:56;;;;;;;3.70;1.90;;;;;;;;;;7079301;27;20096;-80
2021/07/04 16:48:16;;;;;;;3.78;1.58;;;;;;;;;;7080062;27;20066;-79
2021/07/04 16:51:37;;;;;;;3.70;1.40;;;;;;;;;;7079513;27;20084;-80
2021/07/04 16:54:57;;;;;;;4.28;1.85;;;;;;;;;;7062288;27;20135;-79
2021/07/04 16:58:18;;;;;;;2.85;1.60;;;;;;;;;;7066038;27;20054;-78
2021/07/04 17:01:38;;;;;;;3.75;1.55;;;;;;;;;;7068053;27;20505;-78
2021/07/04 17:04:58;;;;;;;3.03;1.63;;;;;;;;;;7060940;27;20477;-78
2021/07/04 17:08:19;;;;;;;7.13;1.77;;;;;;;;;;7079368;27;20070;-78
2021/07/04 17:11:39;;;;;;;5.13;1.58;;;;;;;;;;7079348;27;20126;-78
2021/07/04 17:15:00;;;;;;;3.63;1.55;;;;;;;;;;7050842;28;20500;-78
2021/07/04 17:18:20;;;;;;;3.13;1.58;;;;;;;;;;7078231;27;20046;-78
2021/07/04 17:21:41;;;;;;;2.53;1.52;;;;;;;;;;7079359;27;20046;-78
2021/07/04 17:25:03;;;;;;;2.85;1.55;;;;;;;;;;7066639;27;20054;-78
2021/07/04 17:28:24;;;;;;;2.17;1.25;;;;;;;;;;7080127;27;20496;-78
2021/07/04 17:31:44;;;;;;;2.10;1.42;;;;;;;;;;7084136;27;20050;-80
2021/07/04 17:35:05;;;;;;;1.95;1.50;;;;;;;;;;7072690;27;20130;-78
2021/07/04 17:38:26;;;;;;;2.20;1.55;;;;;;;;;;7069007;27;20047;-78
2021/07/04 17:41:46;;;;;;;3.58;1.38;;;;;;;;;;7055166;28;20068;-79
2021/07/04 17:45:07;;;;;;;1.17;1.02;;;;;;;;;;7035534;28;20052;-81
2021/07/04 17:48:28;;;;;;;2.65;1.30;;;;;;;;;;7052694;27;20568;-79
2021/07/04 17:51:49;;;;;;;3.28;1.50;;;;;;;;;;7066359;27;20504;-78
2021/07/04 17:55:12;;;;;;;1.35;1.25;;;;;;;;;;7069962;27;20130;-78
2021/07/04 17:58:33;;;;;;;3.33;1.33;;;;;;;;;;7071446;27;20048;-79
2021/07/04 18:01:53;;;;;;;3.67;1.70;;;;;;;;;;7037436;28;20126;-78
2021/07/04 18:05:14;;;;;;;2.15;1.40;;;;;;;;;;7065671;27;20130;-78
2021/07/04 18:08:38;;;;;;;2.42;1.20;;;;;;;;;;7071187;27;20126;-78
2021/07/04 18:11:59;;;;;;;3.55;1.40;;;;;;;;;;7071665;27;20066;-79
2021/07/04 18:15:20;;;;;;;2.10;1.30;;;;;;;;;;7069830;27;20100;-78
2021/07/04 18:18:41;;;;;;;1.73;1.30;;;;;;;;;;7067096;27;20047;-78
2021/07/04 18:22:01;;;;;;;5.80;1.55;;;;;;;;;;7070184;27;20050;-78
2021/07/04 18:25:22;;;;;;;2.28;1.08;;;;;;;;;;7068810;27;20083;-78
2021/07/04 18:28:42;;;;;;;3.50;1.70;;;;;;;;;;7070652;27;20069;-78
2021/07/04 18:32:03;;;;;;;4.18;1.50;;;;;;;;;;7069683;27;20044;-79
2021/07/04 18:35:24;;;;;;;2.20;1.25;;;;;;;;;;7070650;27;20039;-78
2021/07/04 18:38:45;;;;;;;1.95;1.25;;;;;;;;;;7082583;27;20074;-78
2021/07/04 18:42:05;;;;;;;2.08;1.30;;;;;;;;;;7082918;27;20071;-78
2021/07/04 18:45:25;;;;;;;1.75;1.33;;;;;;;;;;7082577;27;20059;-78
2021/07/04 18:48:47;;;;;;;3.70;1.33;;;;;;;;;;7082274;27;20055;-79
2021/07/04 18:52:08;;;;;;;5.18;1.15;;;;;;;;;;7081892;27;20485;-78
2021/07/04 18:55:29;;;;;;;3.20;1.35;;;;;;;;;;7082280;27;20124;-78
2021/07/04 18:58:49;;;;;;;3.83;1.33;;;;;;;;;;7063933;27;20047;-79
2021/07/04 19:02:09;;;;;;;2.30;1.20;;;;;;;;;;7081933;27;20124;-78
2021/07/04 19:05:31;;;;;;;2.70;1.10;;;;;;;;;;7082168;27;20063;-78
2021/07/04 19:08:52;;;;;;;3.67;1.08;;;;;;;;;;7081710;27;20039;-79
2021/07/04 19:12:12;;;;;;;4.43;1.10;;;;;;;;;;7081119;27;20046;-78
2021/07/04 19:15:34;;;;;;;1.52;1.30;;;;;;;;;;7081917;27;20047;-78
2021/07/04 19:18:55;;;;;;;1.83;1.00;;;;;;;;;;7081904;27;20039;-78
2021/07/04 19:22:19;;;;;;;6.25;1.33;;;;;;;;;;7078363;27;20039;-78
2021/07/04 19:25:46;;;;;;;3.65;1.50;;;;;;;;;;7051465;27;20400;-76
2021/07/04 19:29:07;;;;;;;7.93;2.03;;;;;;;;;;7075906;27;20451;-76
2021/07/04 19:32:27;;;;;;;2.95;1.13;;;;;;;;;;7050363;28;20393;-77
2021/07/04 19:35:49;;;;;;;6.00;1.98;;;;;;;;;;7051162;28;20155;-77
2021/07/04 19:39:10;;;;;;;4.95;2.03;;;;;;;;;;7053820;28;20481;-77
2021/07/04 19:42:30;;;;;;;1.42;1.33;;;;;;;;;;7054241;28;20071;-77
2021/07/04 19:45:51;;;;;;;5.88;2.10;;;;;;;;;;7051400;28;20435;-76
2021/07/04 19:49:11;;;;;;;4.80;1.95;;;;;;;;;;7050568;28;20051;-77
2021/07/04 19:52:32;;;;;;;6.45;1.90;;;;;;;;;;7051956;28;20134;-77
2021/07/04 19:55:58;;;;;;;3.30;1.80;;;;;;;;;;7051103;28;20068;-77
2021/07/04 19:59:18;;;;;;;2.20;1.55;;;;;;;;;;7051551;28;20031;-77
2021/07/04 20:02:39;;;;;;;3.45;2.17;;;;;;;;;;7049622;28;20151;-77
2021/07/04 20:05:59;;;;;;;3.20;2.05;;;;;;;;;;7063200;27;20053;-77
2021/07/04 20:09:20;;;;;;;4.68;2.10;;;;;;;;;;7070352;27;20490;-77
2021/07/04 20:12:41;;;;;;;5.40;1.90;;;;;;;;;;7068436;27;20039;-77
2021/07/04 20:16:02;;;;;;;2.30;1.90;;;;;;;;;;7057877;27;20050;-77
2021/07/04 20:19:22;;;;;;;3.13;1.92;;;;;;;;;;7048648;27;20055;-77
2021/07/04 20:22:43;;;;;;;3.47;2.15;;;;;;;;;;7066302;27;20046;-77
2021/07/04 20:26:05;;;;;;;3.40;2.42;;;;;;;;;;7064937;27;20145;-77
2021/07/04 20:29:26;;;;;;;4.35;2.70;;;;;;;;;;7064492;27;20096;-78
2021/07/04 20:32:47;;;;;;;3.88;2.50;;;;;;;;;;7061105;27;20118;-78
2021/07/04 20:36:08;;;;;;;5.50;2.90;;;;;;;;;;7057704;27;20099;-78
2021/07/04 20:39:29;;;;;;;4.18;2.30;;;;;;;;;;7050895;28;20031;-77
2021/07/04 20:42:50;;;;;;;4.28;2.58;;;;;;;;;;7032882;28;20040;-77
2021/07/04 20:46:13;;;;;;;2.28;2.05;;;;;;;;;;7024198;28;20051;-77
2021/07/04 20:49:33;;;;;;;8.20;2.78;;;;;;;;;;7029090;28;20071;-77
2021/07/04 20:52:53;;;;;;;6.53;2.72;;;;;;;;;;7025665;28;20157;-77
2021/07/04 20:56:14;;;;;;;3.80;2.63;;;;;;;;;;7044567;28;20056;-78
2021/07/04 20:59:36;;;;;;;5.40;3.33;;;;;;;;;;7059042;27;20499;-77
2021/07/04 21:02:56;;;;;;;6.05;2.70;;;;;;;;;;7056739;28;20123;-77
2021/07/04 21:06:18;;;;;;;3.83;2.70;;;;;;;;;;7063957;27;20474;-77
2021/07/04 21:09:38;;;;;;;4.35;2.90;;;;;;;;;;7062027;27;20488;-77
2021/07/04 21:12:59;;;;;;;4.95;3.22;;;;;;;;;;7058219;27;20124;-77
2021/07/04 21:16:19;;;;;;;4.45;3.30;;;;;;;;;;7061714;27;20039;-76
2021/07/04 21:19:40;;;;;;;4.65;3.08;;;;;;;;;;7060314;27;20077;-77
2021/07/04 21:23:00;;;;;;;3.00;2.50;;;;;;;;;;7059540;27;20066;-77
2021/07/04 21:26:21;;;;;;;9.10;2.70;;;;;;;;;;7050664;27;20565;-77
2021/07/04 21:29:41;;;;;;;5.80;2.83;;;;;;;;;;7066716;27;20100;-76
2021/07/04 21:33:02;;;;;;;3.15;2.65;;;;;;;;;;7066075;27;20086;-76
2021/07/04 21:36:22;;;;;;;6.18;2.97;;;;;;;;;;7067383;27;20453;-76
2021/07/04 21:39:43;;;;;;;4.20;2.55;;;;;;;;;;7078213;27;20483;-76
2021/07/04 21:43:03;;;;;;;4.30;2.80;;;;;;;;;;7069489;27;20127;-77
2021/07/04 21:46:23;;;;;;;4.53;3.00;;;;;;;;;;7078337;27;20046;-76
2021/07/04 21:49:44;;;;;;;3.58;2.58;;;;;;;;;;7078255;27;20051;-77
2021/07/04 21:53:04;;;;;;;3.92;2.92;;;;;;;;;;7077761;27;20508;-77
2021/07/04 21:56:25;;;;;;;4.53;2.20;;;;;;;;;;7078234;27;20047;-76
2021/07/04 21:59:45;;;;;;;2.45;2.13;;;;;;;;;;7078320;27;20039;-77
2021/07/04 22:03:13;;;;;;;3.70;3.15;;;;;;;;;;7078068;27;20051;-84
2021/07/04 22:06:34;;;;;;;6.93;2.30;;;;;;;;;;7048858;27;20062;-77
2021/07/04 22:09:54;;;;;;;2.17;1.70;;;;;;;;;;7077267;27;20112;-78
2021/07/04 22:13:15;;;;;;;5.75;1.90;;;;;;;;;;7083141;27;20480;-78
2021/07/04 22:16:35;;;;;;;7.05;1.45;;;;;;;;;;7083508;27;20054;-79
2021/07/04 22:19:55;;;;;;;2.70;1.40;;;;;;;;;;7083256;27;20134;-77
2021/07/04 22:23:16;;;;;;;1.52;1.30;;;;;;;;;;7082680;27;20075;-76
2021/07/04 22:26:36;;;;;;;2.55;1.30;;;;;;;;;;7083101;27;20047;-77
2021/07/04 22:29:56;;;;;;;2.15;1.40;;;;;;;;;;7083154;27;20197;-77
2021/07/04 22:33:17;;;;;;;1.50;1.40;;;;;;;;;;7082316;27;20075;-77
2021/07/04 22:36:38;;;;;;;2.60;1.48;;;;;;;;;;7082186;27;20043;-77
2021/07/04 22:39:59;;;;;;;2.40;1.40;;;;;;;;;;7081871;27;20041;-78
2021/07/04 22:43:19;;;;;;;2.38;1.52;;;;;;;;;;7082353;27;20088;-78
2021/07/04 22:46:40;;;;;;;2.58;1.20;;;;;;;;;;7082334;27;20090;-77
2021/07/04 22:50:02;;;;;;;1.88;1.15;;;;;;;;;;7052791;27;20536;-77
2021/07/04 22:53:23;;;;;;;1.85;1.38;;;;;;;;;;7042370;27;20111;-77
2021/07/04 22:56:44;;;;;;;3.58;1.48;;;;;;;;;;7082141;27;20043;-77
2021/07/04 23:00:06;;;;;;;1.70;1.35;;;;;;;;;;7082269;27;20042;-77
2021/07/04 23:03:28;;;;;;;2.80;1.33;;;;;;;;;;7081809;27;20130;-77
2021/07/04 23:06:48;;;;;;;2.03;1.30;;;;;;;;;;7082577;27;20050;-77
2021/07/04 23:10:10;;;;;;;5.03;1.40;;;;;;;;;;7081434;27;20126;-77
2021/07/04 23:13:30;;;;;;;1.95;1.10;;;;;;;;;;7081840;27;20055;-80
2021/07/04 23:16:51;;;;;;;2.45;1.52;;;;;;;;;;7081467;27;20047;-81
2021/07/04 23:20:14;;;;;;;2.45;1.50;;;;;;;;;;7081504;27;20109;-80
2021/07/04 23:23:35;;;;;;;2.80;1.27;;;;;;;;;;7081199;27;20062;-80
2021/07/04 23:26:57;;;;;;;1.60;1.10;;;;;;;;;;7063011;27;20051;-80
2021/07/04 23:30:21;;;;;;;1.10;1.10;;;;;;;;;;7081577;27;20058;-80
2021/07/04 23:33:41;;;;;;;1.55;1.10;;;;;;;;;;7083714;27;20051;-80
2021/07/04 23:37:02;;;;;;;9.63;1.33;;;;;;;;;;7083439;27;20070;-79
2021/07/04 23:40:23;;;;;;;2.30;1.10;;;;;;;;;;7083062;27;20058;-80
2021/07/04 23:43:44;;;;;;;3.13;1.10;;;;;;;;;;7082179;27;20576;-80
2021/07/04 23:47:04;;;;;;;5.97;1.23;;;;;;;;;;7080982;27;20035;-80
2021/07/04 23:50:25;;;;;;;1.27;1.10;;;;;;;;;;7080752;27;20073;-81
2021/07/04 23:53:45;;;;;;;4.18;1.10;;;;;;;;;;7081066;27;20099;-80
2021/07/04 23:57:12;;;;;;;1.45;1.10;;;;;;;;;;7080824;27;20389;-80
